sensor_id;sensor_type;location;lat;lon;timestamp;pressure;altitude;pressure_sealevel;temperature;humidity
71638;BME280;59485;43.542;-5.676;2023-02-28T00:00:22;102456.28;;;6.19;100.00
71638;BME280;59485;43.542;-5.676;2023-02-28T00:02:47;102462.50;;;6.21;100.00
71638;BME280;59485;43.542;-5.676;2023-02-28T00:05:14;102464.97;;;6.24;100.00
71638;BME280;59485;43.542;-5.676;2023-02-28T00:07:40;102470.66;;;6.21;100.00
71638;BME280;59485;43.542;-5.676;2023-02-28T00:12:34;102467.75;;;6.00;100.00
71638;BME280;59485;43.542;-5.676;2023-02-28T00:14:59;102471.88;;;6.06;100.00
71638;BME280;59485;43.542;-5.676;2023-02-28T00:17:25;102472.47;;;6.09;100.00
71638;BME280;59485;43.542;-5.676;2023-02-28T00:19:50;102475.19;;;5.98;100.00
71638;BME280;59485;43.542;-5.676;2023-02-28T00:22:20;102474.06;;;5.89;100.00
71638;BME280;59485;43.542;-5.676;2023-02-28T00:27:34;102473.31;;;5.75;100.00
71638;BME280;59485;43.542;-5.676;2023-02-28T00:30:00;102474.31;;;5.74;100.00
71638;BME280;59485;43.542;-5.676;2023-02-28T00:32:26;102470.72;;;5.73;100.00
71638;BME280;59485;43.542;-5.676;2023-02-28T00:34:51;102478.47;;;5.66;100.00
71638;BME280;59485;43.542;-5.676;2023-02-28T00:37:16;102474.91;;;5.66;100.00
71638;BME280;59485;43.542;-5.676;2023-02-28T00:39:42;102471.06;;;5.69;100.00
71638;BME280;59485;43.542;-5.676;2023-02-28T00:42:07;102474.91;;;5.66;100.00
71638;BME280;59485;43.542;-5.676;2023-02-28T00:44:37;102475.53;;;5.70;100.00
71638;BME280;59485;43.542;-5.676;2023-02-28T00:47:02;102475.75;;;5.66;100.00
71638;BME280;59485;43.542;-5.676;2023-02-28T00:49:27;102471.41;;;5.64;100.00
71638;BME280;59485;43.542;-5.676;2023-02-28T00:51:54;102481.69;;;5.60;100.00
71638;BME280;59485;43.542;-5.676;2023-02-28T00:54:19;102478.84;;;5.62;100.00
71638;BME280;59485;43.542;-5.676;2023-02-28T00:56:45;102470.69;;;5.62;100.00
71638;BME280;59485;43.542;-5.676;2023-02-28T00:59:11;102465.97;;;5.64;100.00
71638;BME280;59485;43.542;-5.676;2023-02-28T01:01:36;102470.56;;;5.63;100.00
71638;BME280;59485;43.542;-5.676;2023-02-28T01:04:02;102469.81;;;5.61;100.00
71638;BME280;59485;43.542;-5.676;2023-02-28T01:06:39;102469.06;;;5.59;100.00
71638;BME280;59485;43.542;-5.676;2023-02-28T01:09:05;102476.25;;;5.60;100.00
71638;BME280;59485;43.542;-5.676;2023-02-28T01:11:31;102477.00;;;5.62;100.00
71638;BME280;59485;43.542;-5.676;2023-02-28T01:13:57;102469.72;;;5.63;100.00
71638;BME280;59485;43.542;-5.676;2023-02-28T01:16:22;102462.41;;;5.63;100.00
71638;BME280;59485;43.542;-5.676;2023-02-28T01:18:51;102461.06;;;5.69;100.00
71638;BME280;59485;43.542;-5.676;2023-02-28T01:21:17;102454.97;;;5.65;100.00
71638;BME280;59485;43.542;-5.676;2023-02-28T01:23:43;102456.72;;;5.66;100.00
71638;BME280;59485;43.542;-5.676;2023-02-28T01:29:00;102447.06;;;5.62;100.00
71638;BME280;59485;43.542;-5.676;2023-02-28T01:31:32;102461.41;;;5.64;100.00
71638;BME280;59485;43.542;-5.676;2023-02-28T01:34:03;102457.97;;;5.62;100.00
71638;BME280;59485;43.542;-5.676;2023-02-28T01:36:29;102458.81;;;5.63;100.00
71638;BME280;59485;43.542;-5.676;2023-02-28T01:38:57;102460.53;;;5.64;100.00
71638;BME280;59485;43.542;-5.676;2023-02-28T01:41:25;102467.31;;;5.58;100.00
71638;BME280;59485;43.542;-5.676;2023-02-28T01:46:43;102456.22;;;5.61;100.00
71638;BME280;59485;43.542;-5.676;2023-02-28T01:49:11;102449.91;;;5.61;100.00
71638;BME280;59485;43.542;-5.676;2023-02-28T01:54:05;102457.09;;;5.62;100.00
71638;BME280;59485;43.542;-5.676;2023-02-28T01:56:49;102457.31;;;5.59;100.00
71638;BME280;59485;43.542;-5.676;2023-02-28T02:02:08;102458.47;;;5.68;100.00
71638;BME280;59485;43.542;-5.676;2023-02-28T02:06:59;102470.09;;;5.70;100.00
71638;BME280;59485;43.542;-5.676;2023-02-28T02:23:10;102451.31;;;5.78;100.00
71638;BME280;59485;43.542;-5.676;2023-02-28T02:31:06;102454.81;;;5.80;100.00
71638;BME280;59485;43.542;-5.676;2023-02-28T02:37:02;102464.06;;;5.77;100.00
71638;BME280;59485;43.542;-5.676;2023-02-28T02:42:55;102462.09;;;5.79;100.00
71638;BME280;59485;43.542;-5.676;2023-02-28T02:45:53;102458.84;;;5.74;100.00
71638;BME280;59485;43.542;-5.676;2023-02-28T02:48:21;102464.94;;;5.78;100.00
71638;BME280;59485;43.542;-5.676;2023-02-28T02:50:51;102461.56;;;5.74;100.00
71638;BME280;59485;43.542;-5.676;2023-02-28T02:53:28;102456.13;;;5.74;100.00
71638;BME280;59485;43.542;-5.676;2023-02-28T02:55:55;102455.25;;;5.74;100.00
71638;BME280;59485;43.542;-5.676;2023-02-28T02:58:26;102458.97;;;5.73;100.00
71638;BME280;59485;43.542;-5.676;2023-02-28T03:03:28;102460.97;;;5.71;100.00
71638;BME280;59485;43.542;-5.676;2023-02-28T03:05:55;102456.50;;;5.70;100.00
71638;BME280;59485;43.542;-5.676;2023-02-28T03:11:03;102454.66;;;5.70;100.00
71638;BME280;59485;43.542;-5.676;2023-02-28T03:27:24;102450.28;;;5.68;100.00
71638;BME280;59485;43.542;-5.676;2023-02-28T03:29:54;102449.53;;;5.65;100.00
71638;BME280;59485;43.542;-5.676;2023-02-28T03:32:29;102447.94;;;5.63;100.00
71638;BME280;59485;43.542;-5.676;2023-02-28T03:37:50;102452.25;;;5.65;100.00
71638;BME280;59485;43.542;-5.676;2023-02-28T03:40:25;102453.25;;;5.64;100.00
71638;BME280;59485;43.542;-5.676;2023-02-28T03:42:51;102456.09;;;5.63;100.00
71638;BME280;59485;43.542;-5.676;2023-02-28T03:45:25;102461.66;;;5.61;100.00
71638;BME280;59485;43.542;-5.676;2023-02-28T03:47:56;102459.56;;;5.65;100.00
71638;BME280;59485;43.542;-5.676;2023-02-28T03:50:39;102458.94;;;5.61;100.00
71638;BME280;59485;43.542;-5.676;2023-02-28T03:55:51;102464.59;;;5.58;100.00
71638;BME280;59485;43.542;-5.676;2023-02-28T04:01:13;102464.81;;;5.55;100.00
71638;BME280;59485;43.542;-5.676;2023-02-28T04:06:06;102461.00;;;5.58;100.00
71638;BME280;59485;43.542;-5.676;2023-02-28T04:08:32;102456.44;;;5.58;100.00
71638;BME280;59485;43.542;-5.676;2023-02-28T04:11:01;102463.63;;;5.59;100.00
71638;BME280;59485;43.542;-5.676;2023-02-28T04:13:35;102457.19;;;5.60;100.00
71638;BME280;59485;43.542;-5.676;2023-02-28T04:16:13;102469.06;;;5.59;100.00
71638;BME280;59485;43.542;-5.676;2023-02-28T04:21:15;102459.69;;;5.63;100.00
71638;BME280;59485;43.542;-5.676;2023-02-28T04:26:08;102460.31;;;5.67;100.00
71638;BME280;59485;43.542;-5.676;2023-02-28T04:28:34;102464.13;;;5.64;100.00
71638;BME280;59485;43.542;-5.676;2023-02-28T04:31:01;102472.53;;;5.61;100.00
71638;BME280;59485;43.542;-5.676;2023-02-28T04:33:30;102466.84;;;5.64;100.00
71638;BME280;59485;43.542;-5.676;2023-02-28T04:35:59;102479.72;;;5.62;100.00
71638;BME280;59485;43.542;-5.676;2023-02-28T04:38:48;102479.47;;;5.65;100.00
71638;BME280;59485;43.542;-5.676;2023-02-28T04:41:14;102479.47;;;5.65;100.00
71638;BME280;59485;43.542;-5.676;2023-02-28T04:43:39;102476.75;;;5.65;100.00
71638;BME280;59485;43.542;-5.676;2023-02-28T04:46:05;102477.50;;;5.68;100.00
71638;BME280;59485;43.542;-5.676;2023-02-28T04:48:43;102473.81;;;5.69;100.00
71638;BME280;59485;43.542;-5.676;2023-02-28T04:54:00;102487.28;;;5.70;100.00
71638;BME280;59485;43.542;-5.676;2023-02-28T04:56:32;102483.69;;;5.70;100.00
71638;BME280;59485;43.542;-5.676;2023-02-28T04:58:57;102486.53;;;5.68;100.00
71638;BME280;59485;43.542;-5.676;2023-02-28T05:01:24;102494.59;;;5.70;100.00
71638;BME280;59485;43.542;-5.676;2023-02-28T05:03:49;102492.09;;;5.66;100.00
71638;BME280;59485;43.542;-5.676;2023-02-28T05:06:21;102498.28;;;5.69;100.00
71638;BME280;59485;43.542;-5.676;2023-02-28T05:08:46;102498.28;;;5.69;100.00
71638;BME280;59485;43.542;-5.676;2023-02-28T05:11:23;102498.41;;;5.67;100.00
71638;BME280;59485;43.542;-5.676;2023-02-28T05:13:49;102499.25;;;5.68;100.00
71638;BME280;59485;43.542;-5.676;2023-02-28T05:16:18;102500.59;;;5.62;100.00
71638;BME280;59485;43.542;-5.676;2023-02-28T05:18:43;102507.66;;;5.64;100.00
71638;BME280;59485;43.542;-5.676;2023-02-28T05:21:28;102509.63;;;5.62;100.00
71638;BME280;59485;43.542;-5.676;2023-02-28T05:23:55;102513.34;;;5.61;100.00
71638;BME280;59485;43.542;-5.676;2023-02-28T05:29:18;102509.00;;;5.59;100.00
71638;BME280;59485;43.542;-5.676;2023-02-28T05:31:44;102521.72;;;5.58;100.00
71638;BME280;59485;43.542;-5.676;2023-02-28T05:34:15;102521.72;;;5.58;100.00
71638;BME280;59485;43.542;-5.676;2023-02-28T05:36:43;102518.03;;;5.59;100.00
71638;BME280;59485;43.542;-5.676;2023-02-28T05:39:09;102522.47;;;5.60;100.00
71638;BME280;59485;43.542;-5.676;2023-02-28T05:41:38;102525.41;;;5.57;100.00
71638;BME280;59485;43.542;-5.676;2023-02-28T05:44:03;102527.16;;;5.58;100.00
71638;BME280;59485;43.542;-5.676;2023-02-28T05:46:28;102536.09;;;5.60;100.00
71638;BME280;59485;43.542;-5.676;2023-02-28T05:48:54;102537.28;;;5.56;100.00
71638;BME280;59485;43.542;-5.676;2023-02-28T05:51:20;102524.56;;;5.57;100.00
71638;BME280;59485;43.542;-5.676;2023-02-28T05:53:46;102529.13;;;5.56;100.00
71638;BME280;59485;43.542;-5.676;2023-02-28T05:56:13;102538.03;;;5.58;100.00
71638;BME280;59485;43.542;-5.676;2023-02-28T05:58:38;102538.91;;;5.59;100.00
71638;BME280;59485;43.542;-5.676;2023-02-28T06:03:52;102530.75;;;5.59;100.00
71638;BME280;59485;43.542;-5.676;2023-02-28T06:06:17;102526.94;;;5.61;100.00
71638;BME280;59485;43.542;-5.676;2023-02-28T06:08:43;102533.47;;;5.59;100.00
71638;BME280;59485;43.542;-5.676;2023-02-28T06:11:09;102534.34;;;5.59;100.00
71638;BME280;59485;43.542;-5.676;2023-02-28T06:13:35;102538.03;;;5.58;100.00
71638;BME280;59485;43.542;-5.676;2023-02-28T06:16:01;102533.56;;;5.57;100.00
71638;BME280;59485;43.542;-5.676;2023-02-28T06:18:26;102540.75;;;5.58;100.00
71638;BME280;59485;43.542;-5.676;2023-02-28T06:20:52;102542.50;;;5.59;100.00
71638;BME280;59485;43.542;-5.676;2023-02-28T06:23:19;102549.78;;;5.59;100.00
71638;BME280;59485;43.542;-5.676;2023-02-28T06:25:45;102554.16;;;5.61;100.00
71638;BME280;59485;43.542;-5.676;2023-02-28T06:28:10;102554.38;;;5.58;100.00
71638;BME280;59485;43.542;-5.676;2023-02-28T06:30:36;102552.63;;;5.57;100.00
71638;BME280;59485;43.542;-5.676;2023-02-28T06:33:02;102558.16;;;5.56;100.00
71638;BME280;59485;43.542;-5.676;2023-02-28T06:35:27;102559.03;;;5.56;100.00
71638;BME280;59485;43.542;-5.676;2023-02-28T06:37:53;102556.44;;;5.55;100.00
71638;BME280;59485;43.542;-5.676;2023-02-28T06:40:18;102558.41;;;5.53;100.00
71638;BME280;59485;43.542;-5.676;2023-02-28T06:42:43;102563.09;;;5.51;100.00
71638;BME280;59485;43.542;-5.676;2023-02-28T06:45:12;102570.16;;;5.53;100.00
71638;BME280;59485;43.542;-5.676;2023-02-28T06:47:38;102568.44;;;5.52;100.00
71638;BME280;59485;43.542;-5.676;2023-02-28T06:50:04;102567.66;;;5.50;100.00
71638;BME280;59485;43.542;-5.676;2023-02-28T06:52:29;102564.84;;;5.52;100.00
71638;BME280;59485;43.542;-5.676;2023-02-28T06:54:55;102578.94;;;5.57;100.00
71638;BME280;59485;43.542;-5.676;2023-02-28T06:57:26;102574.50;;;5.56;100.00
71638;BME280;59485;43.542;-5.676;2023-02-28T06:59:52;102579.94;;;5.56;100.00
71638;BME280;59485;43.542;-5.676;2023-02-28T07:02:17;102581.44;;;5.60;100.00
71638;BME280;59485;43.542;-5.676;2023-02-28T07:04:42;102575.59;;;5.53;100.00
71638;BME280;59485;43.542;-5.676;2023-02-28T07:07:09;102584.06;;;5.61;100.00
71638;BME280;59485;43.542;-5.676;2023-02-28T07:09:35;102582.22;;;5.62;100.00
71638;BME280;59485;43.542;-5.676;2023-02-28T07:12:00;102575.78;;;5.63;100.00
71638;BME280;59485;43.542;-5.676;2023-02-28T07:14:25;102577.28;;;5.67;100.00
71638;BME280;59485;43.542;-5.676;2023-02-28T07:16:51;102584.09;;;5.73;100.00
71638;BME280;59485;43.542;-5.676;2023-02-28T07:19:16;102592.28;;;5.73;100.00
71638;BME280;59485;43.542;-5.676;2023-02-28T07:21:42;102596.63;;;5.75;100.00
71638;BME280;59485;43.542;-5.676;2023-02-28T07:24:07;102590.19;;;5.76;100.00
71638;BME280;59485;43.542;-5.676;2023-02-28T07:26:33;102593.38;;;5.70;100.00
71638;BME280;59485;43.542;-5.676;2023-02-28T07:29:01;102596.00;;;5.72;100.00
71638;BME280;59485;43.542;-5.676;2023-02-28T07:31:27;102602.81;;;5.77;100.00
71638;BME280;59485;43.542;-5.676;2023-02-28T07:33:52;102593.31;;;5.83;100.00
71638;BME280;59485;43.542;-5.676;2023-02-28T07:36:19;102600.09;;;5.90;100.00
71638;BME280;59485;43.542;-5.676;2023-02-28T07:38:44;102595.38;;;5.92;100.00
71638;BME280;59485;43.542;-5.676;2023-02-28T07:41:11;102600.50;;;5.96;100.00
71638;BME280;59485;43.542;-5.676;2023-02-28T07:43:36;102611.38;;;5.96;100.00
71638;BME280;59485;43.542;-5.676;2023-02-28T07:46:05;102609.25;;;5.89;100.00
71638;BME280;59485;43.542;-5.676;2023-02-28T07:48:31;102613.25;;;5.96;100.00
71638;BME280;59485;43.542;-5.676;2023-02-28T07:50:57;102616.19;;;5.93;100.00
71638;BME280;59485;43.542;-5.676;2023-02-28T07:53:23;102621.50;;;5.94;100.00
71638;BME280;59485;43.542;-5.676;2023-02-28T07:55:48;102629.09;;;6.02;100.00
71638;BME280;59485;43.542;-5.676;2023-02-28T07:58:13;102625.28;;;6.05;100.00
71638;BME280;59485;43.542;-5.676;2023-02-28T08:00:39;102627.06;;;5.93;100.00
71638;BME280;59485;43.542;-5.676;2023-02-28T08:03:04;102631.63;;;5.92;100.00
71638;BME280;59485;43.542;-5.676;2023-02-28T08:05:29;102634.38;;;5.92;100.00
71638;BME280;59485;43.542;-5.676;2023-02-28T08:07:55;102633.06;;;5.98;100.00
71638;BME280;59485;43.542;-5.676;2023-02-28T08:10:21;102636.06;;;6.06;100.00
71638;BME280;59485;43.542;-5.676;2023-02-28T08:12:46;102631.06;;;6.00;100.00
71638;BME280;59485;43.542;-5.676;2023-02-28T08:15:12;102639.47;;;5.97;100.00
71638;BME280;59485;43.542;-5.676;2023-02-28T08:17:37;102646.78;;;5.96;100.00
71638;BME280;59485;43.542;-5.676;2023-02-28T08:20:03;102636.94;;;6.07;100.00
71638;BME280;59485;43.542;-5.676;2023-02-28T08:22:29;102639.94;;;6.15;100.00
71638;BME280;59485;43.542;-5.676;2023-02-28T08:24:54;102635.75;;;6.22;100.00
71638;BME280;59485;43.542;-5.676;2023-02-28T08:27:19;102646.06;;;6.29;100.00
71638;BME280;59485;43.542;-5.676;2023-02-28T08:29:45;102645.19;;;6.29;100.00
71638;BME280;59485;43.542;-5.676;2023-02-28T08:32:10;102639.41;;;6.33;100.00
71638;BME280;59485;43.542;-5.676;2023-02-28T08:34:38;102640.69;;;6.40;100.00
71638;BME280;59485;43.542;-5.676;2023-02-28T08:37:03;102625.53;;;6.60;100.00
71638;BME280;59485;43.542;-5.676;2023-02-28T08:39:28;102623.44;;;6.75;100.00
71638;BME280;59485;43.542;-5.676;2023-02-28T08:41:54;102625.56;;;6.83;100.00
71638;BME280;59485;43.542;-5.676;2023-02-28T08:44:19;102624.38;;;6.98;100.00
71638;BME280;59485;43.542;-5.676;2023-02-28T08:46:45;102630.59;;;7.22;100.00
71638;BME280;59485;43.542;-5.676;2023-02-28T08:49:10;102630.22;;;7.49;100.00
71638;BME280;59485;43.542;-5.676;2023-02-28T08:51:36;102623.25;;;7.67;100.00
71638;BME280;59485;43.542;-5.676;2023-02-28T08:54:03;102621.22;;;7.80;100.00
71638;BME280;59485;43.542;-5.676;2023-02-28T08:56:29;102617.50;;;7.93;100.00
71638;BME280;59485;43.542;-5.676;2023-02-28T08:58:55;102622.94;;;8.04;100.00
71638;BME280;59485;43.542;-5.676;2023-02-28T09:01:22;102621.75;;;8.17;100.00
71638;BME280;59485;43.542;-5.676;2023-02-28T09:03:48;102634.53;;;8.28;100.00
71638;BME280;59485;43.542;-5.676;2023-02-28T09:06:14;102626.97;;;8.32;100.00
71638;BME280;59485;43.542;-5.676;2023-02-28T09:08:40;102624.25;;;8.32;100.00
71638;BME280;59485;43.542;-5.676;2023-02-28T09:11:06;102632.78;;;8.38;100.00
71638;BME280;59485;43.542;-5.676;2023-02-28T09:13:32;102630.03;;;8.38;100.00
71638;BME280;59485;43.542;-5.676;2023-02-28T09:15:58;102637.13;;;8.41;100.00
71638;BME280;59485;43.542;-5.676;2023-02-28T09:18:24;102633.97;;;8.45;100.00
71638;BME280;59485;43.542;-5.676;2023-02-28T09:20:52;102632.66;;;8.40;100.00
71638;BME280;59485;43.542;-5.676;2023-02-28T09:23:18;102639.19;;;8.48;100.00
71638;BME280;59485;43.542;-5.676;2023-02-28T09:25:50;102645.53;;;8.49;100.00
71638;BME280;59485;43.542;-5.676;2023-02-28T09:28:16;102644.91;;;8.45;100.00
71638;BME280;59485;43.542;-5.676;2023-02-28T09:30:42;102645.53;;;8.49;100.00
71638;BME280;59485;43.542;-5.676;2023-02-28T09:33:09;102647.00;;;8.53;100.00
71638;BME280;59485;43.542;-5.676;2023-02-28T09:35:34;102648.09;;;8.50;100.00
71638;BME280;59485;43.542;-5.676;2023-02-28T09:37:59;102644.25;;;8.53;100.00
71638;BME280;59485;43.542;-5.676;2023-02-28T09:40:27;102639.66;;;8.53;100.00
71638;BME280;59485;43.542;-5.676;2023-02-28T09:42:53;102646.88;;;8.54;100.00
71638;BME280;59485;43.542;-5.676;2023-02-28T09:47:48;102652.78;;;8.59;100.00
71638;BME280;59485;43.542;-5.676;2023-02-28T09:52:43;102655.53;;;8.59;100.00
71638;BME280;59485;43.542;-5.676;2023-02-28T09:57:48;102652.16;;;8.67;100.00
71638;BME280;59485;43.542;-5.676;2023-02-28T10:05:14;102662.81;;;8.70;100.00
71638;BME280;59485;43.542;-5.676;2023-02-28T10:07:48;102662.56;;;8.73;100.00
71638;BME280;59485;43.542;-5.676;2023-02-28T10:10:20;102662.31;;;8.76;100.00
71638;BME280;59485;43.542;-5.676;2023-02-28T10:12:47;102660.28;;;8.78;100.00
71638;BME280;59485;43.542;-5.676;2023-02-28T10:15:16;102669.22;;;8.80;100.00
71638;BME280;59485;43.542;-5.676;2023-02-28T10:17:43;102666.09;;;8.85;100.00
71638;BME280;59485;43.542;-5.676;2023-02-28T10:20:10;102663.22;;;8.86;100.00
71638;BME280;59485;43.542;-5.676;2023-02-28T10:22:44;102660.47;;;8.86;100.00
71638;BME280;59485;43.542;-5.676;2023-02-28T10:25:25;102660.97;;;8.91;100.00
71638;BME280;59485;43.542;-5.676;2023-02-28T10:28:10;102654.50;;;8.92;100.00
71638;BME280;59485;43.542;-5.676;2023-02-28T10:30:37;102660.28;;;8.99;100.00
71638;BME280;59485;43.542;-5.676;2023-02-28T10:33:04;102658.50;;;9.09;100.00
71638;BME280;59485;43.542;-5.676;2023-02-28T10:35:29;102661.53;;;9.16;100.00
71638;BME280;59485;43.542;-5.676;2023-02-28T10:37:56;102663.72;;;9.22;100.00
71638;BME280;59485;43.542;-5.676;2023-02-28T10:43:00;102659.72;;;9.26;100.00
71638;BME280;59485;43.542;-5.676;2023-02-28T10:45:27;102656.88;;;9.27;100.00
71638;BME280;59485;43.542;-5.676;2023-02-28T10:48:02;102663.34;;;9.26;100.00
71638;BME280;59485;43.542;-5.676;2023-02-28T10:53:14;102657.75;;;9.28;100.00
71638;BME280;59485;43.542;-5.676;2023-02-28T10:58:24;102669.94;;;9.24;100.00
71638;BME280;59485;43.542;-5.676;2023-02-28T11:00:50;102668.63;;;9.18;100.00
71638;BME280;59485;43.542;-5.676;2023-02-28T11:03:29;102670.38;;;9.19;100.00
71638;BME280;59485;43.542;-5.676;2023-02-28T11:05:55;102673.47;;;9.15;100.00
71638;BME280;59485;43.542;-5.676;2023-02-28T11:08:21;102670.00;;;9.13;100.00
71638;BME280;59485;43.542;-5.676;2023-02-28T11:13:17;102670.28;;;9.10;100.00
71638;BME280;59485;43.542;-5.676;2023-02-28T11:15:46;102669.31;;;9.11;100.00
71638;BME280;59485;43.542;-5.676;2023-02-28T11:18:21;102664.41;;;9.14;100.00
71638;BME280;59485;43.542;-5.676;2023-02-28T11:20:48;102665.28;;;9.15;100.00
71638;BME280;59485;43.542;-5.676;2023-02-28T11:23:14;102668.63;;;9.18;100.00
71638;BME280;59485;43.542;-5.676;2023-02-28T11:25:40;102674.41;;;9.25;100.00
71638;BME280;59485;43.542;-5.676;2023-02-28T11:36:04;102670.53;;;9.27;100.00
71638;BME280;59485;43.542;-5.676;2023-02-28T11:38:33;102665.06;;;9.27;100.00
71638;BME280;59485;43.542;-5.676;2023-02-28T11:51:23;102660.66;;;9.36;100.00
71638;BME280;59485;43.542;-5.676;2023-02-28T11:56:39;102666.53;;;9.31;100.00
71638;BME280;59485;43.542;-5.676;2023-02-28T12:01:38;102663.22;;;9.28;100.00
71638;BME280;59485;43.542;-5.676;2023-02-28T12:09:11;102648.41;;;9.30;100.00
71638;BME280;59485;43.542;-5.676;2023-02-28T12:11:48;102650.97;;;9.32;100.00
71638;BME280;59485;43.542;-5.676;2023-02-28T12:22:12;102645.19;;;9.25;100.00
71638;BME280;59485;43.542;-5.676;2023-02-28T12:27:26;102636.03;;;9.36;100.00
71638;BME280;59485;43.542;-5.676;2023-02-28T12:32:21;102629.56;;;9.37;100.00
71638;BME280;59485;43.542;-5.676;2023-02-28T12:37:19;102616.75;;;9.37;100.00
71638;BME280;59485;43.542;-5.676;2023-02-28T12:39:48;102618.28;;;9.30;100.00
71638;BME280;59485;43.542;-5.676;2023-02-28T12:42:19;102617.00;;;9.34;100.00
71638;BME280;59485;43.542;-5.676;2023-02-28T12:44:49;102613.41;;;9.34;100.00
71638;BME280;59485;43.542;-5.676;2023-02-28T12:47:17;102604.31;;;9.33;100.00
71638;BME280;59485;43.542;-5.676;2023-02-28T12:49:50;102604.63;;;9.30;100.00
71638;BME280;59485;43.542;-5.676;2023-02-28T12:55:06;102598.97;;;9.32;100.00
71638;BME280;59485;43.542;-5.676;2023-02-28T13:00:03;102594.66;;;9.29;100.00
71638;BME280;59485;43.542;-5.676;2023-02-28T13:13:04;102580.25;;;9.27;100.00
71638;BME280;59485;43.542;-5.676;2023-02-28T13:15:29;102580.97;;;9.29;100.00
71638;BME280;59485;43.542;-5.676;2023-02-28T13:17:56;102575.34;;;9.31;100.00
71638;BME280;59485;43.542;-5.676;2023-02-28T13:20:33;102574.94;;;9.35;100.00
71638;BME280;59485;43.542;-5.676;2023-02-28T13:22:59;102575.09;;;9.34;100.00
71638;BME280;59485;43.542;-5.676;2023-02-28T13:28:11;102570.34;;;9.36;100.00
71638;BME280;59485;43.542;-5.676;2023-02-28T13:33:36;102570.47;;;9.34;100.00
71638;BME280;59485;43.542;-5.676;2023-02-28T13:38:51;102563.91;;;9.47;100.00
71638;BME280;59485;43.542;-5.676;2023-02-28T13:42:03;102562.72;;;9.49;100.00
71638;BME280;59485;43.542;-5.676;2023-02-28T13:46:29;102562.59;;;9.51;100.00
71638;BME280;59485;43.542;-5.676;2023-02-28T13:57:01;102552.00;;;9.76;100.00
71638;BME280;59485;43.542;-5.676;2023-02-28T14:02:11;102548.88;;;9.91;100.00
71638;BME280;59485;43.542;-5.676;2023-02-28T14:07:33;102546.69;;;9.94;100.00
71638;BME280;59485;43.542;-5.676;2023-02-28T14:17:55;102526.69;;;10.23;100.00
71638;BME280;59485;43.542;-5.676;2023-02-28T14:20:26;102535.91;;;10.22;100.00
71638;BME280;59485;43.542;-5.676;2023-02-28T14:25:33;102533.47;;;10.38;100.00
71638;BME280;59485;43.542;-5.676;2023-02-28T14:38:46;102537.50;;;10.43;100.00
71638;BME280;59485;43.542;-5.676;2023-02-28T14:43:57;102533.13;;;10.60;99.53
71638;BME280;59485;43.542;-5.676;2023-02-28T14:46:36;102522.31;;;10.59;99.89
71638;BME280;59485;43.542;-5.676;2023-02-28T14:49:01;102533.00;;;10.62;100.00
71638;BME280;59485;43.542;-5.676;2023-02-28T14:51:29;102531.97;;;10.63;100.00
71638;BME280;59485;43.542;-5.676;2023-02-28T14:53:59;102534.41;;;10.66;98.65
71638;BME280;59485;43.542;-5.676;2023-02-28T14:56:26;102532.25;;;10.69;99.40
71638;BME280;59485;43.542;-5.676;2023-02-28T14:58:54;102517.50;;;10.80;98.36
71638;BME280;59485;43.542;-5.676;2023-02-28T15:01:20;102521.69;;;10.74;97.78
71638;BME280;59485;43.542;-5.676;2023-02-28T15:03:47;102520.53;;;10.77;99.78
71638;BME280;59485;43.542;-5.676;2023-02-28T15:06:15;102513.31;;;10.76;98.35
71638;BME280;59485;43.542;-5.676;2023-02-28T15:08:45;102524.44;;;10.65;99.12
71638;BME280;59485;43.542;-5.676;2023-02-28T15:11:15;102522.91;;;10.52;96.62
71638;BME280;59485;43.542;-5.676;2023-02-28T15:21:07;102517.28;;;10.54;92.45
71638;BME280;59485;43.542;-5.676;2023-02-28T15:23:34;102517.25;;;10.64;99.80
71638;BME280;59485;43.542;-5.676;2023-02-28T15:26:01;102513.47;;;10.65;95.49
71638;BME280;59485;43.542;-5.676;2023-02-28T15:28:27;102513.47;;;10.65;94.70
71638;BME280;59485;43.542;-5.676;2023-02-28T15:30:57;102504.19;;;10.85;97.42
71638;BME280;59485;43.542;-5.676;2023-02-28T15:33:25;102513.72;;;10.90;94.64
71638;BME280;59485;43.542;-5.676;2023-02-28T15:35:51;102503.25;;;11.04;93.56
71638;BME280;59485;43.542;-5.676;2023-02-28T15:40:52;102500.56;;;11.21;91.38
71638;BME280;59485;43.542;-5.676;2023-02-28T15:43:40;102501.28;;;11.23;89.73
71638;BME280;59485;43.542;-5.676;2023-02-28T15:46:06;102496.66;;;11.24;87.94
71638;BME280;59485;43.542;-5.676;2023-02-28T15:48:36;102490.44;;;11.22;85.98
71638;BME280;59485;43.542;-5.676;2023-02-28T15:51:06;102495.84;;;11.41;85.75
71638;BME280;59485;43.542;-5.676;2023-02-28T15:53:33;102488.91;;;11.37;87.96
71638;BME280;59485;43.542;-5.676;2023-02-28T15:56:04;102488.84;;;11.47;88.66
71638;BME280;59485;43.542;-5.676;2023-02-28T15:58:32;102488.22;;;11.35;87.36
71638;BME280;59485;43.542;-5.676;2023-02-28T16:01:04;102493.72;;;11.35;91.77
71638;BME280;59485;43.542;-5.676;2023-02-28T16:03:37;102490.97;;;11.35;88.02
71638;BME280;59485;43.542;-5.676;2023-02-28T16:08:55;102495.72;;;11.06;93.00
71638;BME280;59485;43.542;-5.676;2023-02-28T16:11:20;102496.94;;;10.94;92.83
71638;BME280;59485;43.542;-5.676;2023-02-28T16:13:47;102505.66;;;10.79;92.62
71638;BME280;59485;43.542;-5.676;2023-02-28T16:16:16;102504.25;;;10.66;93.68
71638;BME280;59485;43.542;-5.676;2023-02-28T16:18:42;102505.56;;;10.62;92.18
71638;BME280;59485;43.542;-5.676;2023-02-28T16:21:08;102499.38;;;10.40;94.92
71638;BME280;59485;43.542;-5.676;2023-02-28T16:23:33;102499.25;;;10.42;94.85
71638;BME280;59485;43.542;-5.676;2023-02-28T16:25:59;102499.13;;;10.34;94.08
71638;BME280;59485;43.542;-5.676;2023-02-28T16:28:25;102499.84;;;10.26;96.13
71638;BME280;59485;43.542;-5.676;2023-02-28T16:30:54;102500.13;;;10.23;99.68
71638;BME280;59485;43.542;-5.676;2023-02-28T16:33:20;102502.00;;;10.13;99.62
71638;BME280;59485;43.542;-5.676;2023-02-28T16:35:45;102503.31;;;9.99;96.36